Time;durP1;ratioP1;P1;durP2;ratioP2;P2;SDS_P1;SDS_P2;PMS_P1;PMS_P2;Temp;Humidity;BMP_temperature;BMP_pressure;BME280_temperature;BME280_humidity;BME280_pressure;Samples;Min_cycle;Max_cycle;Signal;HPM_P1;HPM_P2
2021/11/23 00:00:29;;;;;;;3.30;3.00;;;;;;;;;;5053923;28;20183;-89
2021/11/23 00:03:17;;;;;;;5.13;3.90;;;;;;;;;;5053924;28;20206;-87
2021/11/23 00:06:02;;;;;;;12.03;6.77;;;;;;;;;;5056018;28;20245;-88
2021/11/23 00:08:47;;;;;;;20.80;10.03;;;;;;;;;;5057685;28;20551;-89
2021/11/23 00:11:32;;;;;;;30.50;14.47;;;;;;;;;;5057539;28;20187;-87
2021/11/23 00:14:17;;;;;;;33.97;13.47;;;;;;;;;;5056821;28;20754;-88
2021/11/23 00:17:04;;;;;;;36.33;12.73;;;;;;;;;;5057649;28;20225;-88
2021/11/23 00:19:49;;;;;;;17.27;6.70;;;;;;;;;;5056048;28;20234;-86
2021/11/23 00:22:34;;;;;;;8.43;4.50;;;;;;;;;;5056244;28;20183;-87
2021/11/23 00:25:19;;;;;;;9.33;5.00;;;;;;;;;;5056926;28;20293;-87
2021/11/23 00:28:05;;;;;;;9.67;4.90;;;;;;;;;;5056294;28;20187;-89
2021/11/23 00:30:50;;;;;;;10.13;5.93;;;;;;;;;;5056303;28;20547;-87
2021/11/23 00:33:42;;;;;;;5.30;3.33;;;;;;;;;;5056465;28;20206;-90
2021/11/23 00:36:27;;;;;;;5.33;2.90;;;;;;;;;;5060341;28;20233;-90
2021/11/23 00:39:12;;;;;;;3.00;2.73;;;;;;;;;;5060518;28;20183;-90
2021/11/23 00:41:57;;;;;;;4.27;3.27;;;;;;;;;;5060723;28;20682;-90
2021/11/23 00:44:42;;;;;;;3.10;2.90;;;;;;;;;;5060125;28;20233;-90
2021/11/23 00:47:27;;;;;;;4.17;3.20;;;;;;;;;;5059639;28;20278;-90
2021/11/23 00:50:15;;;;;;;3.57;3.10;;;;;;;;;;5060930;28;20222;-91
2021/11/23 00:53:00;;;;;;;4.80;3.30;;;;;;;;;;5060545;28;20266;-90
2021/11/23 00:55:45;;;;;;;3.63;3.30;;;;;;;;;;5060826;28;20662;-90
2021/11/23 00:58:31;;;;;;;3.50;3.30;;;;;;;;;;5060117;28;20191;-91
2021/11/23 01:01:16;;;;;;;3.50;3.30;;;;;;;;;;5060052;28;20245;-90
2021/11/23 01:04:01;;;;;;;3.20;3.00;;;;;;;;;;5061211;28;20183;-91
2021/11/23 01:06:49;;;;;;;3.27;3.07;;;;;;;;;;5062200;28;20186;-91
2021/11/23 01:09:34;;;;;;;3.87;3.50;;;;;;;;;;5061929;28;20556;-90
2021/11/23 01:12:19;;;;;;;4.60;3.20;;;;;;;;;;5061514;28;20191;-90
2021/11/23 01:15:06;;;;;;;3.87;3.00;;;;;;;;;;5061228;28;20190;-91
2021/11/23 01:17:52;;;;;;;3.30;3.00;;;;;;;;;;5061258;28;20190;-90
2021/11/23 01:20:37;;;;;;;2.83;2.63;;;;;;;;;;5061410;28;20272;-89
2021/11/23 01:23:23;;;;;;;3.63;3.33;;;;;;;;;;5060868;28;20195;-89
2021/11/23 01:26:09;;;;;;;3.53;3.23;;;;;;;;;;5060973;28;20308;-87
2021/11/23 01:28:54;;;;;;;4.63;3.00;;;;;;;;;;5061107;28;20221;-91
2021/11/23 01:31:40;;;;;;;3.47;3.20;;;;;;;;;;5061636;28;20178;-88
2021/11/23 01:34:25;;;;;;;4.60;4.20;;;;;;;;;;5061909;28;20274;-89
2021/11/23 01:37:10;;;;;;;4.20;3.90;;;;;;;;;;5061562;28;20178;-90
2021/11/23 01:39:57;;;;;;;4.87;3.90;;;;;;;;;;5060811;28;20210;-89
2021/11/23 01:42:42;;;;;;;3.50;3.30;;;;;;;;;;5060863;28;20670;-90
2021/11/23 01:45:27;;;;;;;3.70;3.37;;;;;;;;;;5060113;28;20215;-91
2021/11/23 01:48:12;;;;;;;4.03;3.40;;;;;;;;;;5059560;28;20194;-90
2021/11/23 01:50:58;;;;;;;4.43;3.43;;;;;;;;;;5059260;28;20234;-90
2021/11/23 01:53:43;;;;;;;4.33;3.60;;;;;;;;;;5060145;28;20211;-91
2021/11/23 01:56:30;;;;;;;5.47;3.50;;;;;;;;;;5059407;28;20677;-91
2021/11/23 01:59:15;;;;;;;3.40;3.20;;;;;;;;;;5059671;28;20542;-91
2021/11/23 02:02:00;;;;;;;4.73;3.80;;;;;;;;;;5059903;28;20618;-91
2021/11/23 02:04:46;;;;;;;3.70;3.40;;;;;;;;;;5060332;28;20187;-91
2021/11/23 02:07:31;;;;;;;5.33;3.40;;;;;;;;;;5059342;28;20198;-91
2021/11/23 02:10:16;;;;;;;3.77;3.47;;;;;;;;;;5059714;28;20186;-90
2021/11/23 02:13:02;;;;;;;3.90;3.50;;;;;;;;;;5060101;28;20226;-92
2021/11/23 02:15:48;;;;;;;3.90;3.50;;;;;;;;;;5059779;28;20210;-92
2021/11/23 02:18:33;;;;;;;7.13;3.43;;;;;;;;;;5059789;28;20183;-91
2021/11/23 02:21:19;;;;;;;3.00;2.80;;;;;;;;;;5059625;28;20190;-92
2021/11/23 02:24:05;;;;;;;4.40;3.50;;;;;;;;;;5060165;28;20681;-92
2021/11/23 02:26:50;;;;;;;3.60;3.30;;;;;;;;;;5059821;28;20304;-91
2021/11/23 02:29:35;;;;;;;4.20;3.13;;;;;;;;;;5059793;28;20194;-90
2021/11/23 02:32:20;;;;;;;3.83;3.50;;;;;;;;;;5059626;28;20269;-91
2021/11/23 02:35:05;;;;;;;3.30;3.00;;;;;;;;;;5059762;28;20584;-92
2021/11/23 02:37:53;;;;;;;3.20;3.00;;;;;;;;;;5059511;28;20194;-91
2021/11/23 02:40:38;;;;;;;12.90;3.37;;;;;;;;;;5059897;28;20187;-90
2021/11/23 02:43:24;;;;;;;4.23;3.10;;;;;;;;;;5059761;28;20221;-91
2021/11/23 02:46:10;;;;;;;4.90;3.33;;;;;;;;;;5060491;28;20662;-91
2021/11/23 02:48:55;;;;;;;3.50;3.20;;;;;;;;;;5060622;28;20247;-91
2021/11/23 02:51:41;;;;;;;3.87;3.50;;;;;;;;;;5059963;28;20222;-91
2021/11/23 02:54:27;;;;;;;5.63;3.33;;;;;;;;;;5059821;28;20288;-91
2021/11/23 02:57:12;;;;;;;3.53;3.23;;;;;;;;;;5060439;28;20229;-90
2021/11/23 02:59:58;;;;;;;3.83;3.43;;;;;;;;;;5059907;28;20195;-90
2021/11/23 03:02:44;;;;;;;3.43;3.20;;;;;;;;;;5059994;28;20642;-91
2021/11/23 03:05:29;;;;;;;3.30;3.10;;;;;;;;;;5059807;28;20190;-91
2021/11/23 03:08:14;;;;;;;4.57;3.67;;;;;;;;;;5059245;28;20182;-91
2021/11/23 03:11:01;;;;;;;3.80;3.50;;;;;;;;;;5059342;28;20685;-91
2021/11/23 03:13:46;;;;;;;3.40;3.20;;;;;;;;;;5059659;28;20213;-90
2021/11/23 03:16:31;;;;;;;6.17;3.40;;;;;;;;;;5059548;28;20268;-92
2021/11/23 03:19:16;;;;;;;3.77;3.47;;;;;;;;;;5059835;28;20190;-92
2021/11/23 03:22:02;;;;;;;5.13;3.53;;;;;;;;;;5059518;28;20666;-92
2021/11/23 03:24:47;;;;;;;3.33;3.13;;;;;;;;;;5059536;28;20737;-91
2021/11/23 03:27:34;;;;;;;3.97;3.13;;;;;;;;;;5060454;28;20302;-89
2021/11/23 03:30:23;;;;;;;3.70;3.40;;;;;;;;;;5060355;28;20297;-92
2021/11/23 03:33:09;;;;;;;3.50;3.20;;;;;;;;;;5060696;28;20302;-91
2021/11/23 03:35:55;;;;;;;4.47;3.87;;;;;;;;;;5059430;28;20187;-92
2021/11/23 03:38:40;;;;;;;4.87;3.50;;;;;;;;;;5060222;28;20230;-91
2021/11/23 03:41:25;;;;;;;4.13;3.40;;;;;;;;;;5063314;28;20198;-92
2021/11/23 03:44:11;;;;;;;4.50;3.67;;;;;;;;;;5063360;28;20183;-93
2021/11/23 03:46:56;;;;;;;3.80;3.50;;;;;;;;;;5063734;28;20261;-91
2021/11/23 03:49:43;;;;;;;4.20;3.80;;;;;;;;;;5063529;28;20194;-91
2021/11/23 03:52:28;;;;;;;6.60;4.80;;;;;;;;;;5063941;28;20261;-92
2021/11/23 03:55:15;;;;;;;19.63;10.50;;;;;;;;;;5062857;28;20219;-90
2021/11/23 03:58:01;;;;;;;14.77;10.83;;;;;;;;;;5063143;28;20186;-91
2021/11/23 04:00:48;;;;;;;8.47;5.43;;;;;;;;;;5063192;28;20291;-93
2021/11/23 04:03:33;;;;;;;5.20;4.10;;;;;;;;;;5063693;28;20721;-92
2021/11/23 04:06:19;;;;;;;7.07;3.93;;;;;;;;;;5063055;28;20190;-91
2021/11/23 04:09:05;;;;;;;5.27;3.77;;;;;;;;;;5062876;28;20246;-92
2021/11/23 04:11:50;;;;;;;3.67;3.37;;;;;;;;;;5062206;28;20206;-92
2021/11/23 04:14:35;;;;;;;4.07;3.67;;;;;;;;;;5062257;28;20210;-89
2021/11/23 04:17:21;;;;;;;3.87;3.53;;;;;;;;;;5062085;28;20600;-91
2021/11/23 04:20:07;;;;;;;3.67;3.43;;;;;;;;;;5061958;28;20266;-91
2021/11/23 04:22:53;;;;;;;4.87;3.83;;;;;;;;;;5062188;28;20198;-92
2021/11/23 04:25:38;;;;;;;5.30;3.70;;;;;;;;;;5061880;28;20670;-92
2021/11/23 04:28:23;;;;;;;5.07;3.77;;;;;;;;;;5062173;28;20198;-91
2021/11/23 04:31:08;;;;;;;5.60;4.20;;;;;;;;;;5061616;28;20190;-90
2021/11/23 04:33:55;;;;;;;3.80;3.50;;;;;;;;;;5061695;28;20198;-90
2021/11/23 04:36:40;;;;;;;4.13;3.53;;;;;;;;;;5060275;28;20191;-90
2021/11/23 04:39:25;;;;;;;4.03;3.73;;;;;;;;;;5061643;28;20194;-91
2021/11/23 04:42:10;;;;;;;4.10;3.40;;;;;;;;;;5061451;28;20191;-91
2021/11/23 04:44:55;;;;;;;4.27;3.87;;;;;;;;;;5061764;28;20211;-92
2021/11/23 04:47:40;;;;;;;4.60;3.60;;;;;;;;;;5062141;28;20210;-90
2021/11/23 04:50:26;;;;;;;3.73;3.43;;;;;;;;;;5060474;28;20238;-90
2021/11/23 04:53:11;;;;;;;4.27;3.87;;;;;;;;;;5061843;28;20191;-92
2021/11/23 04:55:56;;;;;;;6.53;4.87;;;;;;;;;;5061112;28;20211;-92
2021/11/23 04:58:42;;;;;;;16.13;9.63;;;;;;;;;;5061094;28;20190;-91
2021/11/23 05:01:27;;;;;;;14.37;10.07;;;;;;;;;;5061377;28;20638;-91
2021/11/23 05:04:13;;;;;;;15.87;9.17;;;;;;;;;;5061444;28;20186;-91
2021/11/23 05:06:59;;;;;;;15.17;8.03;;;;;;;;;;5060880;28;20237;-91
2021/11/23 05:09:45;;;;;;;13.10;7.40;;;;;;;;;;5061259;28;20190;-91
2021/11/23 05:12:30;;;;;;;7.33;5.23;;;;;;;;;;5060483;28;20235;-89
2021/11/23 05:15:15;;;;;;;6.00;5.17;;;;;;;;;;5060462;28;20210;-90
2021/11/23 05:18:00;;;;;;;5.37;4.60;;;;;;;;;;5060337;28;20186;-92
2021/11/23 05:20:45;;;;;;;7.37;6.10;;;;;;;;;;5059850;28;20191;-89
2021/11/23 05:23:31;;;;;;;15.60;9.43;;;;;;;;;;5059575;28;20206;-91
2021/11/23 05:26:16;;;;;;;26.80;14.90;;;;;;;;;;5059773;28;20225;-90
2021/11/23 05:29:02;;;;;;;24.87;13.23;;;;;;;;;;5059538;28;20201;-90
2021/11/23 05:31:47;;;;;;;5.17;4.50;;;;;;;;;;5058344;28;20275;-90
2021/11/23 05:34:32;;;;;;;5.63;4.50;;;;;;;;;;5059017;28;20296;-90
2021/11/23 05:37:17;;;;;;;5.30;4.23;;;;;;;;;;5058359;28;20191;-91
2021/11/23 05:40:03;;;;;;;10.13;3.90;;;;;;;;;;5056124;28;20234;-88
2021/11/23 05:42:49;;;;;;;5.27;4.17;;;;;;;;;;5057298;28;20198;-89
2021/11/23 05:45:34;;;;;;;5.43;3.90;;;;;;;;;;5057790;28;20198;-92
2021/11/23 05:48:18;;;;;;;4.53;4.13;;;;;;;;;;5057337;28;20198;-91
2021/11/23 05:51:04;;;;;;;4.63;3.90;;;;;;;;;;5058945;28;20269;-91
2021/11/23 05:53:49;;;;;;;4.60;4.10;;;;;;;;;;5058483;28;20280;-90
2021/11/23 05:56:36;;;;;;;4.87;3.93;;;;;;;;;;5076027;28;20288;-88
2021/11/23 05:59:21;;;;;;;4.50;4.10;;;;;;;;;;5075504;28;20193;-90
2021/11/23 06:02:06;;;;;;;5.10;4.27;;;;;;;;;;5076259;28;20559;-87
2021/11/23 06:04:51;;;;;;;4.10;3.80;;;;;;;;;;5075682;28;20182;-89
2021/11/23 06:07:36;;;;;;;4.40;4.00;;;;;;;;;;5077400;28;20190;-92
2021/11/23 06:10:21;;;;;;;4.30;3.90;;;;;;;;;;5077897;28;20304;-89
2021/11/23 06:13:09;;;;;;;5.47;4.30;;;;;;;;;;5077600;28;20674;-90
2021/11/23 06:15:54;;;;;;;5.17;4.37;;;;;;;;;;5072787;28;20210;-89
2021/11/23 06:18:39;;;;;;;4.20;3.90;;;;;;;;;;5054559;28;20190;-86
2021/11/23 06:21:25;;;;;;;6.37;4.20;;;;;;;;;;5052380;28;20265;-86
2021/11/23 06:24:11;;;;;;;5.70;4.77;;;;;;;;;;5053291;28;20567;-87
2021/11/23 06:26:57;;;;;;;8.30;5.20;;;;;;;;;;5052326;28;20233;-86
2021/11/23 06:29:44;;;;;;;7.03;5.43;;;;;;;;;;5055263;28;20357;-93
2021/11/23 06:32:29;;;;;;;10.80;6.53;;;;;;;;;;5054551;28;20313;-88
2021/11/23 06:35:14;;;;;;;8.43;6.00;;;;;;;;;;5058047;28;20682;-91
2021/11/23 06:37:59;;;;;;;4.93;4.40;;;;;;;;;;5060407;28;20670;-92
2021/11/23 06:40:45;;;;;;;10.87;7.67;;;;;;;;;;5078152;28;20213;-92
2021/11/23 06:43:30;;;;;;;16.50;9.90;;;;;;;;;;5073781;28;20198;-88
2021/11/23 06:46:16;;;;;;;18.73;10.53;;;;;;;;;;5054915;28;20527;-87
2021/11/23 06:49:03;;;;;;;11.90;8.43;;;;;;;;;;5064996;28;20244;-88
2021/11/23 06:51:48;;;;;;;7.03;5.57;;;;;;;;;;5075708;28;20225;-88
2021/11/23 06:54:33;;;;;;;7.20;5.40;;;;;;;;;;5075013;28;20570;-87
2021/11/23 06:57:19;;;;;;;5.80;5.30;;;;;;;;;;5076710;28;20182;-89
2021/11/23 07:00:05;;;;;;;5.93;5.33;;;;;;;;;;5060950;28;20681;-88
2021/11/23 07:02:51;;;;;;;5.87;5.27;;;;;;;;;;5055860;28;20194;-88
2021/11/23 07:05:37;;;;;;;5.60;5.10;;;;;;;;;;5055800;28;20256;-88
2021/11/23 07:08:22;;;;;;;7.83;5.13;;;;;;;;;;5055039;28;20263;-88
2021/11/23 07:11:07;;;;;;;6.57;5.40;;;;;;;;;;5055326;28;20242;-88
2021/11/23 07:13:52;;;;;;;6.17;5.17;;;;;;;;;;5055666;28;20545;-87
2021/11/23 07:16:37;;;;;;;6.63;5.87;;;;;;;;;;5058903;28;20206;-87
2021/11/23 07:19:24;;;;;;;7.63;5.93;;;;;;;;;;5058713;28;20544;-86
2021/11/23 07:22:08;;;;;;;7.03;5.47;;;;;;;;;;5057759;28;20190;-87
2021/11/23 07:24:54;;;;;;;9.57;6.10;;;;;;;;;;5057714;28;20194;-87
2021/11/23 07:27:39;;;;;;;7.57;6.30;;;;;;;;;;5057492;28;20234;-87
2021/11/23 07:30:25;;;;;;;10.87;7.07;;;;;;;;;;5057311;28;20191;-88
2021/11/23 07:33:10;;;;;;;8.30;6.67;;;;;;;;;;5057854;28;20187;-87
2021/11/23 07:35:56;;;;;;;9.20;6.17;;;;;;;;;;5057696;28;20209;-87
2021/11/23 07:38:41;;;;;;;9.13;6.63;;;;;;;;;;5056783;28;20298;-87
2021/11/23 07:41:26;;;;;;;9.97;7.23;;;;;;;;;;5056848;28;20183;-88
2021/11/23 07:44:11;;;;;;;11.87;6.50;;;;;;;;;;5057745;28;20269;-87
2021/11/23 07:46:56;;;;;;;9.40;6.23;;;;;;;;;;5057473;28;20678;-88
2021/11/23 07:49:41;;;;;;;8.07;5.70;;;;;;;;;;5056563;28;20199;-86
2021/11/23 07:52:28;;;;;;;8.73;5.37;;;;;;;;;;5056868;28;20191;-86
2021/11/23 07:55:13;;;;;;;7.50;5.10;;;;;;;;;;5058134;28;20190;-86
2021/11/23 07:57:58;;;;;;;7.27;5.13;;;;;;;;;;5056920;28;20306;-87
2021/11/23 08:00:43;;;;;;;5.47;4.73;;;;;;;;;;5057265;28;20551;-87
2021/11/23 08:03:28;;;;;;;6.50;4.97;;;;;;;;;;5057123;28;20596;-87
2021/11/23 08:06:13;;;;;;;5.37;4.87;;;;;;;;;;5057905;28;20207;-87
2021/11/23 08:08:59;;;;;;;7.30;4.97;;;;;;;;;;5057390;28;20313;-88
2021/11/23 08:11:44;;;;;;;6.23;4.90;;;;;;;;;;5057064;28;20195;-87
2021/11/23 08:14:29;;;;;;;5.73;5.00;;;;;;;;;;5056426;28;20197;-88
2021/11/23 08:17:14;;;;;;;5.10;4.67;;;;;;;;;;5058882;28;20344;-86
2021/11/23 08:19:59;;;;;;;5.00;4.60;;;;;;;;;;5056919;28;20190;-88
2021/11/23 08:22:45;;;;;;;5.50;5.00;;;;;;;;;;5056219;28;20622;-85
2021/11/23 08:25:32;;;;;;;9.13;5.40;;;;;;;;;;5053891;28;20597;-85
2021/11/23 08:28:18;;;;;;;7.40;4.97;;;;;;;;;;5055463;28;20269;-87
2021/11/23 08:31:04;;;;;;;6.07;4.97;;;;;;;;;;5056229;28;20270;-86
2021/11/23 08:33:49;;;;;;;5.13;4.63;;;;;;;;;;5055454;28;20187;-86
2021/11/23 08:36:34;;;;;;;5.13;4.60;;;;;;;;;;5056569;28;20229;-88
2021/11/23 08:39:19;;;;;;;6.33;4.97;;;;;;;;;;5058735;28;20261;-88
2021/11/23 08:42:06;;;;;;;6.27;5.53;;;;;;;;;;5057984;28;20935;-87
2021/11/23 08:44:52;;;;;;;7.80;5.30;;;;;;;;;;5058041;28;20190;-88
2021/11/23 08:47:37;;;;;;;7.93;5.40;;;;;;;;;;5056142;28;20229;-87
2021/11/23 08:50:22;;;;;;;7.57;5.80;;;;;;;;;;5058439;28;20276;-88
2021/11/23 08:53:08;;;;;;;6.70;5.80;;;;;;;;;;5057200;28;20187;-86
2021/11/23 08:55:53;;;;;;;6.70;6.00;;;;;;;;;;5055855;28;20205;-85
2021/11/23 08:58:41;;;;;;;7.63;6.00;;;;;;;;;;5054889;28;20197;-85
2021/11/23 09:01:27;;;;;;;6.47;5.40;;;;;;;;;;5054842;28;20713;-87
2021/11/23 09:04:13;;;;;;;6.10;5.03;;;;;;;;;;5055878;28;20535;-87
2021/11/23 09:07:00;;;;;;;6.67;5.60;;;;;;;;;;5055628;28;20229;-86
2021/11/23 09:09:45;;;;;;;8.37;5.10;;;;;;;;;;5055099;28;20317;-86
2021/11/23 09:12:30;;;;;;;10.33;4.90;;;;;;;;;;5055451;28;20562;-86
2021/11/23 09:15:18;;;;;;;6.23;5.63;;;;;;;;;;5056201;28;20186;-87
2021/11/23 09:18:03;;;;;;;6.60;5.43;;;;;;;;;;5054552;28;20193;-86
2021/11/23 09:20:49;;;;;;;5.87;5.13;;;;;;;;;;5054121;28;20245;-86
2021/11/23 09:23:34;;;;;;;5.67;4.80;;;;;;;;;;5054259;28;20565;-86
2021/11/23 09:26:19;;;;;;;7.10;5.07;;;;;;;;;;5054727;28;20537;-87
2021/11/23 09:29:04;;;;;;;7.27;4.97;;;;;;;;;;5054234;28;20195;-87
2021/11/23 09:31:51;;;;;;;6.50;4.77;;;;;;;;;;5054317;28;20195;-86
2021/11/23 09:34:36;;;;;;;6.80;5.47;;;;;;;;;;5053462;28;20190;-86
2021/11/23 09:37:21;;;;;;;12.13;5.43;;;;;;;;;;5053061;28;20235;-85
2021/11/23 09:40:07;;;;;;;5.50;5.00;;;;;;;;;;5053757;28;20189;-88
2021/11/23 09:42:53;;;;;;;5.63;5.00;;;;;;;;;;5053704;28;20198;-87
2021/11/23 09:45:39;;;;;;;10.27;5.30;;;;;;;;;;5053522;28;20194;-86
2021/11/23 09:48:25;;;;;;;7.20;5.43;;;;;;;;;;5052919;28;20654;-88
2021/11/23 09:51:14;;;;;;;5.80;5.17;;;;;;;;;;5052897;28;20296;-86
2021/11/23 09:54:00;;;;;;;10.67;5.20;;;;;;;;;;5053036;28;20543;-86
2021/11/23 09:56:47;;;;;;;16.93;7.90;;;;;;;;;;5052508;28;20725;-86
2021/11/23 09:59:32;;;;;;;11.83;5.87;;;;;;;;;;5052987;28;20756;-87
2021/11/23 10:02:24;;;;;;;8.97;6.70;;;;;;;;;;5052279;28;20187;-85
2021/11/23 10:05:10;;;;;;;9.63;6.40;;;;;;;;;;5052518;28;20298;-87
2021/11/23 10:07:56;;;;;;;20.67;9.63;;;;;;;;;;5052183;28;20186;-87
2021/11/23 10:10:42;;;;;;;26.50;12.27;;;;;;;;;;5052247;28;20190;-85
2021/11/23 10:13:39;;;;;;;7.17;5.83;;;;;;;;;;5051884;28;20658;-86
2021/11/23 10:16:24;;;;;;;26.30;12.10;;;;;;;;;;5051922;28;20211;-85
2021/11/23 10:19:11;;;;;;;7.30;5.93;;;;;;;;;;5052984;28;20536;-88
2021/11/23 10:21:58;;;;;;;5.53;4.47;;;;;;;;;;5052252;28;20190;-87
2021/11/23 10:24:43;;;;;;;5.20;4.40;;;;;;;;;;5052804;28;20272;-88
2021/11/23 10:27:28;;;;;;;10.33;5.10;;;;;;;;;;5051495;28;20358;-88
2021/11/23 10:30:13;;;;;;;6.00;4.40;;;;;;;;;;5052544;28;20186;-87
2021/11/23 10:32:58;;;;;;;4.20;3.80;;;;;;;;;;5052172;28;20633;-87
2021/11/23 10:35:44;;;;;;;5.47;4.40;;;;;;;;;;5052002;28;20198;-87
2021/11/23 10:38:31;;;;;;;4.87;4.37;;;;;;;;;;5051772;28;20194;-87
2021/11/23 10:41:17;;;;;;;5.13;4.20;;;;;;;;;;5051532;28;20183;-87
2021/11/23 10:44:02;;;;;;;4.20;3.80;;;;;;;;;;5052525;28;20743;-85
2021/11/23 10:46:51;;;;;;;8.43;3.97;;;;;;;;;;5052528;28;20182;-89
2021/11/23 10:49:43;;;;;;;4.27;3.40;;;;;;;;;;5056027;28;20183;-89
2021/11/23 10:52:30;;;;;;;4.50;2.90;;;;;;;;;;5058974;28;20190;-90
2021/11/23 10:55:27;;;;;;;2.77;2.57;;;;;;;;;;5056901;28;20245;-90
2021/11/23 10:58:13;;;;;;;2.23;2.07;;;;;;;;;;5056292;28;20207;-89
2021/11/23 11:00:58;;;;;;;4.07;2.80;;;;;;;;;;5057083;28;20199;-88
2021/11/23 11:03:43;;;;;;;3.07;2.77;;;;;;;;;;5054481;28;20211;-88
2021/11/23 11:06:29;;;;;;;3.50;3.20;;;;;;;;;;5055098;28;20190;-92
2021/11/23 11:09:15;;;;;;;2.93;2.73;;;;;;;;;;5056283;28;20191;-89
2021/11/23 11:12:01;;;;;;;5.50;3.27;;;;;;;;;;5053932;28;20539;-89
2021/11/23 11:14:47;;;;;;;6.57;3.37;;;;;;;;;;5052435;28;20661;-86
2021/11/23 11:17:32;;;;;;;6.57;4.20;;;;;;;;;;5054589;28;20289;-94
2021/11/23 11:20:32;;;;;;;4.83;4.03;;;;;;;;;;5053676;28;20244;-86
2021/11/23 11:23:21;;;;;;;10.53;5.37;;;;;;;;;;5053786;28;20206;-87
2021/11/23 11:26:19;;;;;;;7.40;4.23;;;;;;;;;;5052396;28;20242;-86
2021/11/23 11:29:05;;;;;;;4.13;3.70;;;;;;;;;;5052628;28;20182;-88
2021/11/23 11:31:51;;;;;;;4.93;4.00;;;;;;;;;;5054935;28;20190;-88
2021/11/23 11:34:37;;;;;;;4.33;4.00;;;;;;;;;;5053308;28;20186;-86
2021/11/23 11:37:30;;;;;;;4.07;3.50;;;;;;;;;;5053015;28;20744;-86
2021/11/23 11:40:20;;;;;;;6.47;3.60;;;;;;;;;;5053323;28;20276;-86
2021/11/23 11:43:06;;;;;;;8.93;5.80;;;;;;;;;;5052657;28;20183;-87
2021/11/23 11:45:53;;;;;;;3.87;3.57;;;;;;;;;;5053740;28;20235;-88
2021/11/23 11:48:47;;;;;;;4.93;3.67;;;;;;;;;;5053425;28;20182;-88
2021/11/23 11:51:34;;;;;;;6.03;3.37;;;;;;;;;;5052378;28;20226;-85
2021/11/23 11:54:19;;;;;;;4.57;3.60;;;;;;;;;;5051847;28;20643;-85
2021/11/23 11:57:25;;;;;;;7.47;3.50;;;;;;;;;;5052592;28;20210;-85
2021/11/23 12:00:28;;;;;;;3.83;3.57;;;;;;;;;;5053030;28;20187;-84
2021/11/23 12:03:28;;;;;;;5.20;4.07;;;;;;;;;;5055420;28;20245;-86
2021/11/23 12:06:15;;;;;;;4.93;3.70;;;;;;;;;;5055262;28;20721;-85
2021/11/23 12:09:24;;;;;;;4.67;3.40;;;;;;;;;;5054884;28;20190;-84
2021/11/23 12:12:43;;;;;;;5.03;3.47;;;;;;;;;;5055683;28;20183;-84
2021/11/23 12:15:52;;;;;;;4.57;3.80;;;;;;;;;;5054509;28;20553;-85
2021/11/23 12:18:46;;;;;;;5.00;3.60;;;;;;;;;;5048893;28;20230;-86
2021/11/23 12:21:34;;;;;;;4.37;3.70;;;;;;;;;;5054051;28;20250;-86
2021/11/23 12:24:24;;;;;;;5.67;3.10;;;;;;;;;;5054391;28;20728;-85
2021/11/23 12:27:10;;;;;;;5.40;3.57;;;;;;;;;;5053512;28;20234;-84
2021/11/23 12:29:56;;;;;;;3.90;3.00;;;;;;;;;;5054281;28;20718;-85
2021/11/23 12:32:42;;;;;;;3.50;3.20;;;;;;;;;;5053457;28;20616;-87
2021/11/23 12:35:29;;;;;;;3.80;3.07;;;;;;;;;;5054164;28;20245;-85
2021/11/23 12:38:30;;;;;;;3.93;2.90;;;;;;;;;;5053457;28;20217;-85
2021/11/23 12:41:16;;;;;;;4.47;3.87;;;;;;;;;;5053605;28;20455;-85
2021/11/23 12:44:02;;;;;;;5.07;2.90;;;;;;;;;;5053737;28;20548;-86
2021/11/23 12:46:51;;;;;;;4.07;2.97;;;;;;;;;;5053234;28;20405;-85
2021/11/23 12:49:36;;;;;;;6.30;3.10;;;;;;;;;;5053185;28;20191;-84
2021/11/23 12:52:25;;;;;;;4.70;3.10;;;;;;;;;;5053499;28;20187;-86
2021/11/23 12:55:14;;;;;;;3.00;2.77;;;;;;;;;;5053586;28;20191;-86
2021/11/23 12:58:00;;;;;;;3.70;2.83;;;;;;;;;;5053319;28;20210;-86
2021/11/23 13:00:45;;;;;;;3.93;2.47;;;;;;;;;;5053854;28;20666;-88
2021/11/23 13:03:30;;;;;;;4.87;2.83;;;;;;;;;;5053797;28;20267;-86
2021/11/23 13:06:15;;;;;;;4.00;3.10;;;;;;;;;;5053168;28;20194;-88
2021/11/23 13:09:03;;;;;;;2.97;2.50;;;;;;;;;;5053615;28;20187;-85
2021/11/23 13:11:51;;;;;;;2.83;2.60;;;;;;;;;;5052302;28;20270;-85
2021/11/23 13:14:49;;;;;;;4.10;2.73;;;;;;;;;;5053082;28;20229;-83
2021/11/23 13:17:39;;;;;;;2.80;2.60;;;;;;;;;;5052568;28;20629;-83
2021/11/23 13:20:31;;;;;;;4.13;2.60;;;;;;;;;;5054141;28;20198;-86
2021/11/23 13:23:22;;;;;;;3.00;2.80;;;;;;;;;;5054472;28;20337;-86
2021/11/23 13:26:09;;;;;;;3.20;2.43;;;;;;;;;;5053170;28;20590;-86
2021/11/23 13:29:00;;;;;;;2.80;2.60;;;;;;;;;;5053816;28;20186;-87
2021/11/23 13:31:46;;;;;;;5.37;2.70;;;;;;;;;;5054218;28;20203;-86
2021/11/23 13:34:32;;;;;;;4.27;3.10;;;;;;;;;;5054559;28;20190;-87
2021/11/23 13:37:17;;;;;;;3.20;2.70;;;;;;;;;;5053262;28;20187;-87
2021/11/23 13:40:17;;;;;;;3.33;2.90;;;;;;;;;;5053864;28;20546;-86
2021/11/23 13:43:16;;;;;;;3.30;3.00;;;;;;;;;;5053381;28;20189;-85
2021/11/23 13:46:04;;;;;;;2.70;2.50;;;;;;;;;;5053282;28;20191;-88
2021/11/23 13:49:04;;;;;;;2.97;2.70;;;;;;;;;;5053895;28;20229;-88
2021/11/23 13:52:04;;;;;;;3.47;3.17;;;;;;;;;;5053246;28;20576;-87
2021/11/23 13:54:50;;;;;;;2.87;2.53;;;;;;;;;;5053378;28;20714;-87
2021/11/23 13:57:36;;;;;;;5.60;3.00;;;;;;;;;;5053186;28;20214;-87
2021/11/23 14:00:23;;;;;;;4.37;3.50;;;;;;;;;;5053845;28;20191;-87
2021/11/23 14:03:11;;;;;;;7.37;4.43;;;;;;;;;;5053423;28;20666;-88
2021/11/23 14:06:02;;;;;;;16.83;9.53;;;;;;;;;;5053668;28;20182;-88
2021/11/23 14:08:58;;;;;;;14.70;6.93;;;;;;;;;;5053465;28;20209;-88
2021/11/23 14:11:55;;;;;;;9.53;5.23;;;;;;;;;;5053163;28;20198;-87
2021/11/23 14:14:55;;;;;;;13.20;6.83;;;;;;;;;;5053192;28;20268;-87
2021/11/23 14:18:00;;;;;;;19.83;11.50;;;;;;;;;;5053393;28;20679;-87
2021/11/23 14:20:52;;;;;;;20.17;11.30;;;;;;;;;;5053300;28;20769;-86
2021/11/23 14:23:38;;;;;;;18.10;9.23;;;;;;;;;;5051804;28;20214;-87
2021/11/23 14:26:24;;;;;;;10.57;5.23;;;;;;;;;;5053798;28;20234;-90
2021/11/23 14:29:14;;;;;;;7.87;5.13;;;;;;;;;;5053517;28;20199;-86
2021/11/23 14:31:59;;;;;;;5.70;4.10;;;;;;;;;;5052190;28;20186;-88
2021/11/23 14:34:44;;;;;;;5.50;3.77;;;;;;;;;;5053228;28;20645;-86
2021/11/23 14:37:31;;;;;;;8.40;3.70;;;;;;;;;;5052248;28;20238;-86
2021/11/23 14:40:16;;;;;;;3.73;3.00;;;;;;;;;;5052806;28;20603;-86
2021/11/23 14:43:01;;;;;;;4.53;2.70;;;;;;;;;;5052340;28;20203;-87
2021/11/23 14:45:47;;;;;;;5.17;3.40;;;;;;;;;;5052852;28;20234;-87
2021/11/23 14:48:32;;;;;;;4.93;3.30;;;;;;;;;;5053439;28;20203;-86
2021/11/23 14:51:17;;;;;;;8.90;4.70;;;;;;;;;;5052953;28;20360;-88
2021/11/23 14:54:04;;;;;;;5.13;4.00;;;;;;;;;;5053011;28;20182;-87
2021/11/23 14:56:50;;;;;;;5.00;3.87;;;;;;;;;;5052775;28;20655;-87
2021/11/23 14:59:35;;;;;;;5.07;3.70;;;;;;;;;;5052581;28;20254;-87
2021/11/23 15:02:20;;;;;;;4.10;3.70;;;;;;;;;;5052452;28;20257;-87
2021/11/23 15:05:06;;;;;;;8.77;3.47;;;;;;;;;;5053021;28;20726;-86
2021/11/23 15:07:51;;;;;;;4.53;3.13;;;;;;;;;;5052505;28;20265;-90
2021/11/23 15:10:38;;;;;;;4.53;3.27;;;;;;;;;;5053299;28;20196;-88
2021/11/23 15:13:23;;;;;;;3.90;3.50;;;;;;;;;;5052199;28;20190;-85
2021/11/23 15:16:08;;;;;;;4.70;3.60;;;;;;;;;;5051452;28;20186;-84
2021/11/23 15:18:54;;;;;;;3.83;3.00;;;;;;;;;;5051515;28;20249;-84
2021/11/23 15:21:41;;;;;;;4.17;3.03;;;;;;;;;;5051868;28;20657;-84
2021/11/23 15:24:26;;;;;;;5.17;3.73;;;;;;;;;;5051987;28;20210;-86
2021/11/23 15:27:13;;;;;;;5.03;4.43;;;;;;;;;;5051236;28;20718;-84
2021/11/23 15:29:58;;;;;;;9.20;6.50;;;;;;;;;;5051525;28;20190;-84
2021/11/23 15:32:44;;;;;;;10.43;7.57;;;;;;;;;;5051103;28;20554;-84
2021/11/23 15:35:29;;;;;;;8.27;6.00;;;;;;;;;;5053421;28;20272;-85
2021/11/23 15:38:14;;;;;;;10.77;4.63;;;;;;;;;;5056572;28;20195;-85
2021/11/23 15:41:00;;;;;;;9.80;4.40;;;;;;;;;;5055692;28;20190;-83
2021/11/23 15:43:46;;;;;;;6.70;3.53;;;;;;;;;;5055013;28;20569;-84
2021/11/23 15:46:31;;;;;;;6.07;3.40;;;;;;;;;;5054887;28;20264;-83
2021/11/23 15:49:16;;;;;;;4.47;3.50;;;;;;;;;;5055556;28;20191;-82
2021/11/23 15:52:02;;;;;;;10.73;3.47;;;;;;;;;;5054796;28;20190;-84
2021/11/23 15:54:47;;;;;;;8.37;4.10;;;;;;;;;;5054571;28;20269;-83
2021/11/23 15:57:32;;;;;;;9.53;5.60;;;;;;;;;;5054351;28;20183;-84
2021/11/23 16:00:18;;;;;;;8.60;5.60;;;;;;;;;;5054375;28;20525;-82
2021/11/23 16:03:03;;;;;;;9.33;5.87;;;;;;;;;;5054525;28;20269;-84
2021/11/23 16:05:50;;;;;;;9.40;6.27;;;;;;;;;;5053951;28;20187;-84
2021/11/23 16:08:35;;;;;;;8.73;6.93;;;;;;;;;;5054480;28;20566;-87
2021/11/23 16:11:20;;;;;;;9.70;6.80;;;;;;;;;;5054445;28;20543;-86
2021/11/23 16:14:05;;;;;;;9.53;6.43;;;;;;;;;;5054223;28;20202;-84
2021/11/23 16:16:52;;;;;;;8.60;6.13;;;;;;;;;;5053923;28;20191;-86
2021/11/23 16:19:37;;;;;;;12.23;7.00;;;;;;;;;;5060424;28;20229;-84
2021/11/23 16:22:22;;;;;;;7.43;5.80;;;;;;;;;;5073563;28;20344;-85
2021/11/23 16:25:08;;;;;;;10.47;5.93;;;;;;;;;;5059568;28;20205;-85
2021/11/23 16:27:53;;;;;;;9.67;5.80;;;;;;;;;;5053612;28;20309;-83
2021/11/23 16:30:38;;;;;;;7.47;5.23;;;;;;;;;;5053131;28;20190;-82
2021/11/23 16:33:24;;;;;;;11.23;6.00;;;;;;;;;;5053420;28;20265;-86
2021/11/23 16:36:11;;;;;;;5.60;5.00;;;;;;;;;;5071844;28;20197;-85